Time;durP1;ratioP1;P1;durP2;ratioP2;P2;SDS_P1;SDS_P2;PMS_P1;PMS_P2;Temp;Humidity;BMP_temperature;BMP_pressure;BME280_temperature;BME280_humidity;BME280_pressure;Samples;Min_cycle;Max_cycle;Signal;HPM_P1;HPM_P2
2023/01/01 00:01:38;;;;;;;23.13;20.55;;;;;;;;;;5114300;28;20031;-55
2023/01/01 00:04:05;;;;;;;27.70;19.17;;;;;;;;;;5114945;28;20036;-57
2023/01/01 00:06:31;;;;;;;23.63;17.98;;;;;;;;;;5114705;28;20102;-55
2023/01/01 00:11:42;;;;;;;24.40;17.23;;;;;;;;;;5114377;28;20030;-56
2023/01/01 00:14:08;;;;;;;18.90;13.70;;;;;;;;;;5114351;28;20027;-53
2023/01/01 00:16:34;;;;;;;17.83;14.13;;;;;;;;;;5114500;28;20016;-56
2023/01/01 00:19:00;;;;;;;19.55;14.45;;;;;;;;;;5114293;28;20027;-55
2023/01/01 00:21:26;;;;;;;13.52;11.50;;;;;;;;;;5114412;28;20023;-56
2023/01/01 00:23:52;;;;;;;16.55;10.30;;;;;;;;;;5114143;28;20031;-56
2023/01/01 00:26:18;;;;;;;14.77;9.45;;;;;;;;;;5114419;28;20057;-55
2023/01/01 00:28:45;;;;;;;11.38;9.07;;;;;;;;;;5114162;28;20063;-53
2023/01/01 00:31:18;;;;;;;14.98;8.57;;;;;;;;;;5113811;28;20100;-55
2023/01/01 00:33:51;;;;;;;10.82;8.27;;;;;;;;;;5113916;28;20031;-55
2023/01/01 00:36:18;;;;;;;13.93;10.15;;;;;;;;;;5114027;28;20028;-55
2023/01/01 00:38:45;;;;;;;11.98;9.20;;;;;;;;;;5114141;28;20028;-55
2023/01/01 00:41:11;;;;;;;14.52;11.10;;;;;;;;;;5114130;28;20028;-55
2023/01/01 00:43:37;;;;;;;11.77;8.82;;;;;;;;;;5114585;28;20023;-56
2023/01/01 00:46:04;;;;;;;10.55;8.65;;;;;;;;;;5114151;28;20459;-54
2023/01/01 00:48:30;;;;;;;11.43;7.40;;;;;;;;;;5114561;28;20474;-57
2023/01/01 00:50:56;;;;;;;9.95;8.18;;;;;;;;;;5114711;28;20047;-56
2023/01/01 00:53:22;;;;;;;17.00;8.52;;;;;;;;;;5113863;28;20461;-53
2023/01/01 00:55:49;;;;;;;10.07;7.35;;;;;;;;;;5114154;28;20036;-55
2023/01/01 00:58:15;;;;;;;12.35;7.53;;;;;;;;;;5113537;28;20028;-55
2023/01/01 01:00:41;;;;;;;12.23;8.18;;;;;;;;;;5114097;28;20038;-57
2023/01/01 01:03:07;;;;;;;11.57;9.02;;;;;;;;;;5116987;28;20043;-57
2023/01/01 01:05:36;;;;;;;8.57;7.15;;;;;;;;;;5117882;28;20401;-56
2023/01/01 01:08:02;;;;;;;12.50;8.68;;;;;;;;;;5117716;28;20042;-55
2023/01/01 01:10:28;;;;;;;11.43;9.50;;;;;;;;;;5117687;28;20102;-55
2023/01/01 01:12:54;;;;;;;14.45;8.73;;;;;;;;;;5117698;28;20023;-53
2023/01/01 01:15:20;;;;;;;11.93;7.32;;;;;;;;;;5118415;28;20040;-54
2023/01/01 01:17:47;;;;;;;9.23;7.00;;;;;;;;;;5117523;28;20454;-54
2023/01/01 01:20:13;;;;;;;11.00;8.85;;;;;;;;;;5117414;28;20024;-53
2023/01/01 01:22:39;;;;;;;8.60;6.88;;;;;;;;;;5118017;28;20028;-53
2023/01/01 01:25:06;;;;;;;11.35;7.53;;;;;;;;;;5117991;28;20028;-54
2023/01/01 01:27:32;;;;;;;10.40;8.02;;;;;;;;;;5116566;28;20054;-54
2023/01/01 01:29:58;;;;;;;10.95;8.18;;;;;;;;;;5117100;28;20115;-54
2023/01/01 01:32:24;;;;;;;14.93;8.45;;;;;;;;;;5117195;28;20081;-55
2023/01/01 01:34:50;;;;;;;12.07;8.55;;;;;;;;;;5117444;28;20032;-52
2023/01/01 01:37:16;;;;;;;12.00;7.78;;;;;;;;;;5117191;28;20034;-54
2023/01/01 01:39:42;;;;;;;11.55;8.45;;;;;;;;;;5117884;28;20032;-54
2023/01/01 01:42:15;;;;;;;11.10;8.88;;;;;;;;;;5117597;28;20038;-54
2023/01/01 01:44:52;;;;;;;12.07;8.73;;;;;;;;;;5117603;28;20471;-54
2023/01/01 01:47:57;;;;;;;12.18;8.07;;;;;;;;;;5117757;28;20020;-54
2023/01/01 01:50:33;;;;;;;10.23;7.88;;;;;;;;;;5014274;28;20041;-55
2023/01/01 01:53:18;;;;;;;11.23;7.28;;;;;;;;;;5014265;28;20062;-53
2023/01/01 01:55:47;;;;;;;11.35;6.72;;;;;;;;;;5082989;28;20146;-52
2023/01/01 01:58:14;;;;;;;13.43;7.30;;;;;;;;;;5117163;28;20030;-54
2023/01/01 02:00:40;;;;;;;8.98;7.22;;;;;;;;;;5117248;28;20026;-53
2023/01/01 02:03:12;;;;;;;10.50;6.75;;;;;;;;;;5116260;28;20085;-57
2023/01/01 02:05:39;;;;;;;9.38;7.15;;;;;;;;;;5117232;28;20080;-54
2023/01/01 02:08:06;;;;;;;9.50;6.53;;;;;;;;;;5116593;28;20024;-55
2023/01/01 02:10:32;;;;;;;8.85;6.07;;;;;;;;;;5116537;28;20023;-55
2023/01/01 02:12:58;;;;;;;8.02;6.30;;;;;;;;;;5115287;28;20060;-53
2023/01/01 02:15:27;;;;;;;8.75;6.28;;;;;;;;;;5116302;28;20042;-56
2023/01/01 02:17:57;;;;;;;8.02;5.68;;;;;;;;;;5116497;28;20023;-55
2023/01/01 02:20:37;;;;;;;8.73;7.25;;;;;;;;;;5116021;28;20457;-55
2023/01/01 02:23:15;;;;;;;7.78;6.32;;;;;;;;;;5116502;28;20026;-56
2023/01/01 02:25:48;;;;;;;9.90;7.93;;;;;;;;;;5116474;28;20024;-51
2023/01/01 02:28:19;;;;;;;9.30;6.25;;;;;;;;;;5116556;28;20024;-55
2023/01/01 02:30:47;;;;;;;8.68;6.15;;;;;;;;;;5115876;28;20024;-53
2023/01/01 02:33:17;;;;;;;10.75;7.65;;;;;;;;;;5116683;28;20020;-52
2023/01/01 02:35:45;;;;;;;9.50;6.88;;;;;;;;;;5116350;28;20034;-55
2023/01/01 02:38:17;;;;;;;12.23;7.97;;;;;;;;;;5115690;28;20031;-56
2023/01/01 02:40:46;;;;;;;9.27;7.25;;;;;;;;;;5115583;28;20024;-55
2023/01/01 02:43:12;;;;;;;10.18;6.97;;;;;;;;;;5115922;28;20106;-52
2023/01/01 02:45:38;;;;;;;10.65;6.78;;;;;;;;;;5115691;28;20484;-55
2023/01/01 02:48:26;;;;;;;7.05;6.28;;;;;;;;;;5115842;28;20106;-55
2023/01/01 02:50:53;;;;;;;10.65;7.05;;;;;;;;;;5116052;28;20027;-56
2023/01/01 02:53:21;;;;;;;8.35;6.53;;;;;;;;;;5115947;28;20464;-53
2023/01/01 02:56:10;;;;;;;13.48;6.80;;;;;;;;;;5115999;28;20042;-54
2023/01/01 03:01:29;;;;;;;10.70;6.18;;;;;;;;;;5115472;28;20118;-54
2023/01/01 03:04:01;;;;;;;8.80;5.90;;;;;;;;;;5115893;28;20027;-56
2023/01/01 03:06:47;;;;;;;9.00;4.78;;;;;;;;;;5116238;28;20126;-55
2023/01/01 03:09:24;;;;;;;7.88;5.20;;;;;;;;;;5064156;28;20101;-55
2023/01/01 03:11:57;;;;;;;8.63;5.15;;;;;;;;;;5115695;28;20108;-55
2023/01/01 03:14:23;;;;;;;8.65;5.13;;;;;;;;;;5115446;28;20482;-54
2023/01/01 03:16:54;;;;;;;10.68;4.70;;;;;;;;;;5114917;28;20051;-53
2023/01/01 03:19:25;;;;;;;9.35;5.35;;;;;;;;;;5115492;28;20085;-55
2023/01/01 03:21:51;;;;;;;;;;;;;;;;;;5115844;28;20410;-53
2023/01/01 03:24:23;;;;;;;9.68;5.07;;;;;;;;;;5115213;28;19953;-55
2023/01/01 03:26:50;;;;;;;7.75;4.43;;;;;;;;;;5115707;28;20092;-56
2023/01/01 03:29:17;;;;;;;7.05;5.28;;;;;;;;;;5114774;28;20377;-54
2023/01/01 03:31:45;;;;;;;6.32;4.88;;;;;;;;;;5114957;28;20027;-55
2023/01/01 03:34:22;;;;;;;6.45;4.88;;;;;;;;;;5114889;28;20092;-55
2023/01/01 03:36:51;;;;;;;8.20;4.35;;;;;;;;;;5114949;28;20027;-52
2023/01/01 03:39:17;;;;;;;6.82;5.13;;;;;;;;;;5114854;28;20064;-53
2023/01/01 03:41:49;;;;;;;6.78;5.15;;;;;;;;;;5114809;28;20066;-51
2023/01/01 03:44:21;;;;;;;7.32;4.90;;;;;;;;;;5114548;28;20032;-55
2023/01/01 03:46:47;;;;;;;7.22;4.18;;;;;;;;;;5114690;28;20339;-53
2023/01/01 03:49:14;;;;;;;6.95;3.80;;;;;;;;;;5114690;28;20028;-55
2023/01/01 03:51:53;;;;;;;9.38;4.60;;;;;;;;;;5114281;28;20475;-55
2023/01/01 03:54:22;;;;;;;5.50;3.70;;;;;;;;;;5115296;28;20161;-56
2023/01/01 03:56:51;;;;;;;12.95;4.68;;;;;;;;;;5115015;28;20034;-55
2023/01/01 03:59:30;;;;;;;7.57;3.53;;;;;;;;;;5114454;28;20107;-51
2023/01/01 04:02:02;;;;;;;7.82;4.28;;;;;;;;;;5114721;28;20449;-55
2023/01/01 04:04:28;;;;;;;9.57;4.68;;;;;;;;;;5114706;28;20522;-53
2023/01/01 04:06:54;;;;;;;5.43;3.53;;;;;;;;;;5114354;28;20045;-53
2023/01/01 04:09:22;;;;;;;8.35;3.85;;;;;;;;;;5114658;28;20473;-52
2023/01/01 04:12:01;;;;;;;5.78;3.75;;;;;;;;;;5115044;28;20055;-52
2023/01/01 04:14:32;;;;;;;5.28;3.20;;;;;;;;;;5114778;28;20028;-55
2023/01/01 04:16:57;;;;;;;;;;;;;;;;;;5114653;28;20476;-55
2023/01/01 04:19:23;;;;;;;4.88;2.85;;;;;;;;;;5114282;28;19908;-55
2023/01/01 04:21:50;;;;;;;5.60;3.25;;;;;;;;;;5114235;28;20034;-56
2023/01/01 04:24:15;;;;;;;5.05;3.58;;;;;;;;;;5114309;28;20453;-52
2023/01/01 04:26:41;;;;;;;4.78;3.33;;;;;;;;;;5114432;28;20089;-55
2023/01/01 04:29:07;;;;;;;6.35;4.28;;;;;;;;;;5114149;28;20377;-55
2023/01/01 04:31:34;;;;;;;4.57;3.05;;;;;;;;;;5096187;28;20362;-55
2023/01/01 04:34:00;;;;;;;5.43;3.33;;;;;;;;;;5114097;28;20028;-53
2023/01/01 04:36:26;;;;;;;4.80;3.17;;;;;;;;;;5114955;28;20080;-54
2023/01/01 04:38:52;;;;;;;5.47;3.40;;;;;;;;;;5118347;28;20024;-54
2023/01/01 04:41:18;;;;;;;8.23;3.75;;;;;;;;;;5118036;28;20043;-55
2023/01/01 04:43:50;;;;;;;5.43;2.90;;;;;;;;;;5118242;28;20164;-55
2023/01/01 04:46:18;;;;;;;4.47;3.00;;;;;;;;;;5118293;28;20065;-55
2023/01/01 04:48:44;;;;;;;6.28;3.58;;;;;;;;;;5118744;28;20035;-54
2023/01/01 04:51:10;;;;;;;6.70;3.60;;;;;;;;;;5118688;28;20026;-54
2023/01/01 04:53:37;;;;;;;4.57;3.25;;;;;;;;;;5118751;28;20027;-55
2023/01/01 04:56:04;;;;;;;4.60;3.10;;;;;;;;;;5118581;28;20118;-53
2023/01/01 04:58:30;;;;;;;7.28;3.13;;;;;;;;;;5118304;28;20035;-56
2023/01/01 05:00:56;;;;;;;4.40;2.80;;;;;;;;;;5118449;28;20028;-57
2023/01/01 05:03:22;;;;;;;5.70;3.38;;;;;;;;;;5117634;28;20047;-53
2023/01/01 05:05:49;;;;;;;4.85;3.08;;;;;;;;;;5118653;28;20027;-55
2023/01/01 05:08:14;;;;;;;4.55;2.72;;;;;;;;;;5117775;28;20027;-53
2023/01/01 05:10:40;;;;;;;4.60;3.17;;;;;;;;;;5100020;28;20081;-54
2023/01/01 05:13:10;;;;;;;4.63;3.35;;;;;;;;;;5117695;28;20026;-53
2023/01/01 05:15:36;;;;;;;5.65;2.92;;;;;;;;;;5117902;28;20066;-53
2023/01/01 05:18:03;;;;;;;5.22;2.78;;;;;;;;;;5117560;28;20042;-55
2023/01/01 05:20:29;;;;;;;5.40;2.97;;;;;;;;;;5118065;28;20028;-56
2023/01/01 05:22:55;;;;;;;4.60;3.00;;;;;;;;;;5117896;28;20031;-54
2023/01/01 05:25:21;;;;;;;4.00;2.42;;;;;;;;;;5118133;28;20032;-54
2023/01/01 05:27:47;;;;;;;5.82;3.33;;;;;;;;;;5117235;28;20088;-57
2023/01/01 05:30:12;;;;;;;5.10;3.03;;;;;;;;;;5117329;28;20038;-56
2023/01/01 05:32:38;;;;;;;6.45;2.95;;;;;;;;;;5117304;28;20400;-55
2023/01/01 05:35:05;;;;;;;3.65;2.63;;;;;;;;;;5117834;28;20127;-53
2023/01/01 05:37:31;;;;;;;5.90;3.30;;;;;;;;;;5117305;28;20027;-54
2023/01/01 05:39:57;;;;;;;4.57;2.90;;;;;;;;;;5117437;28;20027;-56
2023/01/01 05:42:22;;;;;;;4.65;3.10;;;;;;;;;;5117440;28;20019;-55
2023/01/01 05:44:48;;;;;;;4.53;3.03;;;;;;;;;;5117994;28;20023;-54
2023/01/01 05:47:17;;;;;;;5.90;3.72;;;;;;;;;;5117284;28;20024;-56
2023/01/01 05:49:43;;;;;;;6.07;2.72;;;;;;;;;;5116589;28;20031;-53
2023/01/01 05:52:09;;;;;;;4.43;2.55;;;;;;;;;;5116942;28;20024;-53
2023/01/01 05:54:35;;;;;;;5.25;2.75;;;;;;;;;;5116882;28;20049;-54
2023/01/01 05:57:01;;;;;;;4.45;2.53;;;;;;;;;;5116561;28;20072;-55
2023/01/01 05:59:27;;;;;;;6.07;3.03;;;;;;;;;;5116763;28;20027;-56
2023/01/01 06:01:53;;;;;;;4.28;2.78;;;;;;;;;;5098315;28;20040;-56
2023/01/01 06:04:19;;;;;;;4.57;2.58;;;;;;;;;;5117053;28;20470;-55
2023/01/01 06:06:45;;;;;;;5.95;3.13;;;;;;;;;;5116735;28;20106;-56
2023/01/01 06:09:11;;;;;;;5.50;3.05;;;;;;;;;;5117270;28;20031;-52
2023/01/01 06:11:36;;;;;;;4.22;2.42;;;;;;;;;;5116617;28;20028;-52
2023/01/01 06:14:03;;;;;;;4.15;3.03;;;;;;;;;;5116832;28;20036;-56
2023/01/01 06:16:29;;;;;;;5.32;2.80;;;;;;;;;;5116258;28;20531;-56
2023/01/01 06:18:55;;;;;;;3.90;2.50;;;;;;;;;;5116425;28;20028;-56
2023/01/01 06:21:23;;;;;;;4.15;2.22;;;;;;;;;;5116515;28;20028;-56
2023/01/01 06:23:49;;;;;;;7.22;2.95;;;;;;;;;;5116393;28;20050;-55
2023/01/01 06:26:19;;;;;;;4.50;2.83;;;;;;;;;;5116836;28;20075;-55
2023/01/01 06:28:46;;;;;;;5.03;2.78;;;;;;;;;;5116158;28;20095;-51
2023/01/01 06:31:12;;;;;;;5.38;2.72;;;;;;;;;;5115787;28;20526;-56
2023/01/01 06:33:39;;;;;;;5.80;2.65;;;;;;;;;;5116375;28;20110;-55
2023/01/01 06:36:06;;;;;;;3.50;2.30;;;;;;;;;;5116040;28;20031;-56
2023/01/01 06:38:32;;;;;;;3.20;1.77;;;;;;;;;;5115712;28;20462;-54
2023/01/01 06:40:59;;;;;;;3.38;2.60;;;;;;;;;;5115936;28;20028;-55
2023/01/01 06:43:25;;;;;;;3.03;1.83;;;;;;;;;;5116469;28;20365;-56
2023/01/01 06:46:01;;;;;;;3.47;2.22;;;;;;;;;;5116470;28;20032;-56
2023/01/01 06:48:28;;;;;;;5.63;3.08;;;;;;;;;;5116065;28;20106;-53
2023/01/01 06:50:54;;;;;;;4.10;2.63;;;;;;;;;;5115674;28;20049;-56
2023/01/01 06:53:23;;;;;;;4.88;2.25;;;;;;;;;;5116393;28;20118;-55
2023/01/01 06:55:49;;;;;;;8.90;2.17;;;;;;;;;;5116170;28;20055;-56
2023/01/01 06:58:15;;;;;;;4.30;2.45;;;;;;;;;;5115671;28;20043;-56
2023/01/01 07:00:42;;;;;;;5.50;2.15;;;;;;;;;;5115260;28;20023;-55
2023/01/01 07:03:09;;;;;;;4.95;2.42;;;;;;;;;;5115477;28;20052;-55
2023/01/01 07:05:35;;;;;;;8.65;2.33;;;;;;;;;;5115940;28;20032;-56
2023/01/01 07:08:01;;;;;;;3.47;2.30;;;;;;;;;;5115268;28;20069;-54
2023/01/01 07:10:27;;;;;;;7.35;2.00;;;;;;;;;;5115726;28;20102;-55
2023/01/01 07:12:53;;;;;;;4.13;2.63;;;;;;;;;;5115401;28;20036;-53
2023/01/01 07:15:19;;;;;;;7.70;2.42;;;;;;;;;;5115122;28;20036;-57
2023/01/01 07:17:45;;;;;;;3.55;2.25;;;;;;;;;;5115924;28;20032;-56
2023/01/01 07:20:10;;;;;;;1.90;1.55;;;;;;;;;;5115354;28;20477;-55
2023/01/01 07:22:37;;;;;;;4.57;1.77;;;;;;;;;;5114969;28;20051;-53
2023/01/01 07:25:03;;;;;;;3.80;1.88;;;;;;;;;;5115428;28;20468;-56
2023/01/01 07:27:29;;;;;;;5.15;2.05;;;;;;;;;;5115141;28;20027;-53
2023/01/01 07:29:55;;;;;;;5.47;3.00;;;;;;;;;;5115018;28;20026;-56
2023/01/01 07:32:21;;;;;;;3.35;2.10;;;;;;;;;;5114998;28;20055;-52
2023/01/01 07:34:47;;;;;;;3.65;2.47;;;;;;;;;;5115281;28;20035;-56
2023/01/01 07:37:13;;;;;;;2.92;1.75;;;;;;;;;;5114884;28;20023;-54
2023/01/01 07:39:39;;;;;;;3.17;1.63;;;;;;;;;;5115247;28;20112;-54
2023/01/01 07:42:05;;;;;;;3.28;1.95;;;;;;;;;;5115122;28;20019;-52
2023/01/01 07:44:31;;;;;;;4.70;2.10;;;;;;;;;;5115163;28;20027;-56
2023/01/01 07:47:13;;;;;;;3.13;1.80;;;;;;;;;;5114745;28;20031;-54
2023/01/01 07:49:39;;;;;;;4.45;1.85;;;;;;;;;;5115092;28;20020;-54
2023/01/01 07:52:05;;;;;;;2.95;1.85;;;;;;;;;;5114951;28;20076;-53
2023/01/01 07:54:31;;;;;;;3.90;2.13;;;;;;;;;;5114958;28;20035;-56
2023/01/01 07:56:57;;;;;;;4.05;2.00;;;;;;;;;;5114357;28;20110;-52
2023/01/01 07:59:23;;;;;;;5.07;2.10;;;;;;;;;;5114528;28;20026;-54
2023/01/01 08:01:49;;;;;;;4.35;1.83;;;;;;;;;;5115175;28;20130;-52
2023/01/01 08:04:15;;;;;;;3.80;2.78;;;;;;;;;;5115091;28;20031;-54
2023/01/01 08:06:41;;;;;;;3.70;2.25;;;;;;;;;;5114842;28;20031;-56
2023/01/01 08:09:07;;;;;;;5.60;2.38;;;;;;;;;;5114520;28;20068;-52
2023/01/01 08:11:32;;;;;;;5.85;2.30;;;;;;;;;;5113579;28;20024;-53
2023/01/01 08:13:58;;;;;;;3.10;2.15;;;;;;;;;;5114683;28;20032;-56
2023/01/01 08:16:24;;;;;;;3.55;2.30;;;;;;;;;;5114489;28;20016;-56
2023/01/01 08:18:50;;;;;;;3.28;2.10;;;;;;;;;;5114698;28;20102;-55
2023/01/01 08:21:16;;;;;;;4.10;1.77;;;;;;;;;;5114148;28;20027;-54
2023/01/01 08:23:42;;;;;;;6.75;3.10;;;;;;;;;;5114646;28;20019;-56
2023/01/01 08:26:13;;;;;;;5.00;1.98;;;;;;;;;;5114668;28;20110;-55
2023/01/01 08:28:39;;;;;;;5.38;1.92;;;;;;;;;;5114911;28;20051;-55
2023/01/01 08:31:05;;;;;;;4.75;2.47;;;;;;;;;;5114269;28;20092;-54
2023/01/01 08:33:31;;;;;;;3.63;2.40;;;;;;;;;;5114263;28;20435;-56
2023/01/01 08:35:57;;;;;;;3.65;2.15;;;;;;;;;;5114734;28;20035;-55
2023/01/01 08:38:23;;;;;;;3.35;2.20;;;;;;;;;;5114081;28;20115;-55
2023/01/01 08:40:49;;;;;;;6.10;2.33;;;;;;;;;;5114602;28;20028;-56
2023/01/01 08:43:15;;;;;;;2.78;1.88;;;;;;;;;;5114140;28;20127;-54
2023/01/01 08:45:41;;;;;;;4.28;2.72;;;;;;;;;;5114187;28;20037;-56
2023/01/01 08:48:07;;;;;;;3.30;2.22;;;;;;;;;;5114680;28;20059;-56
2023/01/01 08:50:33;;;;;;;3.25;2.20;;;;;;;;;;5114038;28;20058;-54
2023/01/01 08:52:59;;;;;;;4.93;2.97;;;;;;;;;;5114583;28;20024;-56
2023/01/01 08:55:26;;;;;;;3.95;2.92;;;;;;;;;;5095730;28;20481;-54
2023/01/01 08:57:52;;;;;;;2.97;1.92;;;;;;;;;;5114238;28;20020;-53
2023/01/01 09:00:18;;;;;;;5.00;2.17;;;;;;;;;;5113836;28;20416;-54
2023/01/01 09:02:44;;;;;;;6.72;2.08;;;;;;;;;;5114594;28;20131;-54
2023/01/01 09:05:10;;;;;;;3.85;1.88;;;;;;;;;;5114006;28;20031;-56
2023/01/01 09:07:35;;;;;;;6.75;2.95;;;;;;;;;;5113945;28;20523;-57
2023/01/01 09:10:02;;;;;;;2.95;1.77;;;;;;;;;;5113931;28;20024;-57
2023/01/01 09:12:27;;;;;;;3.78;2.33;;;;;;;;;;5113566;28;20027;-55
2023/01/01 09:14:53;;;;;;;4.30;2.42;;;;;;;;;;5113561;28;20062;-57
2023/01/01 09:17:19;;;;;;;5.05;1.67;;;;;;;;;;5113764;28;20059;-57
2023/01/01 09:19:45;;;;;;;7.45;2.47;;;;;;;;;;5113679;28;20028;-55
2023/01/01 09:22:12;;;;;;;5.63;2.65;;;;;;;;;;5114362;28;20465;-55
2023/01/01 09:24:38;;;;;;;3.67;2.28;;;;;;;;;;5117906;28;20024;-57
2023/01/01 09:27:04;;;;;;;19.30;2.92;;;;;;;;;;5117709;28;20035;-54
2023/01/01 09:29:30;;;;;;;7.40;2.25;;;;;;;;;;5117476;28;20030;-56
2023/01/01 09:31:56;;;;;;;4.18;2.42;;;;;;;;;;5117464;28;20020;-53
2023/01/01 09:34:22;;;;;;;3.92;2.60;;;;;;;;;;5117959;28;20046;-56
2023/01/01 09:36:48;;;;;;;5.15;2.50;;;;;;;;;;5118003;28;20453;-54
2023/01/01 09:39:15;;;;;;;3.80;2.10;;;;;;;;;;5117934;28;20106;-54
2023/01/01 09:42:02;;;;;;;4.53;2.40;;;;;;;;;;5117878;28;20032;-57
2023/01/01 09:44:37;;;;;;;7.20;2.30;;;;;;;;;;5117829;28;20023;-57
2023/01/01 09:47:05;;;;;;;2.72;2.22;;;;;;;;;;5117203;28;20030;-55
2023/01/01 09:49:33;;;;;;;2.97;2.22;;;;;;;;;;5117313;28;20145;-56
2023/01/01 09:52:04;;;;;;;5.50;2.80;;;;;;;;;;5117323;28;20114;-57
2023/01/01 09:54:50;;;;;;;5.47;2.78;;;;;;;;;;5117880;28;20372;-57
2023/01/01 09:57:16;;;;;;;3.25;1.80;;;;;;;;;;5116924;28;20042;-55
2023/01/01 09:59:42;;;;;;;3.08;2.30;;;;;;;;;;5117980;28;20023;-55
2023/01/01 10:02:32;;;;;;;3.72;2.08;;;;;;;;;;5117751;28;20105;-56
2023/01/01 10:05:16;;;;;;;3.37;2.37;;;;;;;;;;5117172;28;20024;-55
2023/01/01 10:07:58;;;;;;;5.82;3.08;;;;;;;;;;5117175;28;20256;-56
2023/01/01 10:10:24;;;;;;;4.32;2.05;;;;;;;;;;5117054;28;20027;-56
2023/01/01 10:12:56;;;;;;;3.88;1.98;;;;;;;;;;5117170;28;20016;-56
2023/01/01 10:15:27;;;;;;;7.10;2.85;;;;;;;;;;5116603;28;20069;-57
2023/01/01 10:17:55;;;;;;;3.63;1.90;;;;;;;;;;5116501;28;20026;-56
2023/01/01 10:20:26;;;;;;;5.22;2.95;;;;;;;;;;5116559;28;20023;-57
2023/01/01 10:22:52;;;;;;;;;;;;;;;;;;5116926;28;20096;-57
2023/01/01 10:25:20;;;;;;;3.67;2.15;;;;;;;;;;5117068;28;19941;-53
2023/01/01 10:27:59;;;;;;;3.78;2.25;;;;;;;;;;5116646;28;20028;-56
2023/01/01 10:30:25;;;;;;;2.70;1.70;;;;;;;;;;5116355;28;20029;-55
2023/01/01 10:32:52;;;;;;;4.10;2.28;;;;;;;;;;5116818;28;20027;-56
2023/01/01 10:35:29;;;;;;;5.07;2.38;;;;;;;;;;5115578;28;20081;-56
2023/01/01 10:37:55;;;;;;;3.40;1.80;;;;;;;;;;5116412;28;20020;-55
2023/01/01 10:40:23;;;;;;;7.43;2.85;;;;;;;;;;5116056;28;20024;-57
2023/01/01 10:42:50;;;;;;;3.05;2.05;;;;;;;;;;5116055;28;20032;-56
2023/01/01 10:45:18;;;;;;;4.05;2.33;;;;;;;;;;5116000;28;20032;-56
2023/01/01 10:48:02;;;;;;;5.00;2.17;;;;;;;;;;5115906;28;20019;-56
2023/01/01 10:50:40;;;;;;;2.92;1.85;;;;;;;;;;5115870;28;20403;-56
2023/01/01 10:53:18;;;;;;;4.47;2.25;;;;;;;;;;5115871;28;20077;-55
2023/01/01 10:55:48;;;;;;;3.83;1.90;;;;;;;;;;5116222;28;20028;-56
2023/01/01 10:58:34;;;;;;;6.47;2.83;;;;;;;;;;5116193;28;20119;-57
2023/01/01 11:01:01;;;;;;;5.15;2.40;;;;;;;;;;5115410;28;20235;-55
2023/01/01 11:03:27;;;;;;;4.18;2.17;;;;;;;;;;5115930;28;20462;-56
2023/01/01 11:06:12;;;;;;;3.42;1.80;;;;;;;;;;5115964;28;20028;-57
2023/01/01 11:08:40;;;;;;;5.10;2.17;;;;;;;;;;5116099;28;20062;-57
2023/01/01 11:11:06;;;;;;;6.93;2.60;;;;;;;;;;5115744;28;20068;-56
2023/01/01 11:13:32;;;;;;;3.97;2.63;;;;;;;;;;5115690;28;20423;-56
2023/01/01 11:15:59;;;;;;;3.00;1.83;;;;;;;;;;5115762;28;20519;-56
2023/01/01 11:18:26;;;;;;;3.60;1.90;;;;;;;;;;5115250;28;20030;-57
2023/01/01 11:20:56;;;;;;;6.63;2.22;;;;;;;;;;5115821;28;20361;-58
2023/01/01 11:23:40;;;;;;;4.05;2.40;;;;;;;;;;5115661;28;20104;-59
2023/01/01 11:26:06;;;;;;;3.65;1.70;;;;;;;;;;5115015;28;20555;-53
2023/01/01 11:28:33;;;;;;;2.97;2.03;;;;;;;;;;5115169;28;20114;-57
2023/01/01 11:31:02;;;;;;;8.55;2.72;;;;;;;;;;5115112;28;20406;-56
2023/01/01 11:33:29;;;;;;;3.60;2.17;;;;;;;;;;5115102;28;20466;-57
2023/01/01 11:35:56;;;;;;;3.08;2.00;;;;;;;;;;5115303;28;20031;-56
2023/01/01 11:38:23;;;;;;;3.78;1.67;;;;;;;;;;5115024;28;20028;-57
2023/01/01 11:40:51;;;;;;;9.50;2.75;;;;;;;;;;5115261;28;20020;-56
2023/01/01 11:43:21;;;;;;;3.70;1.85;;;;;;;;;;5114533;28;20123;-55
2023/01/01 11:45:48;;;;;;;7.13;2.83;;;;;;;;;;5114949;28;20346;-57
2023/01/01 11:48:20;;;;;;;3.05;1.85;;;;;;;;;;5114856;28;20461;-55
2023/01/01 11:51:16;;;;;;;8.90;2.53;;;;;;;;;;5114652;28;20024;-57
2023/01/01 11:53:42;;;;;;;6.32;2.47;;;;;;;;;;5093017;28;20036;-57
2023/01/01 11:56:19;;;;;;;6.68;2.88;;;;;;;;;;5114958;28;20115;-56
2023/01/01 11:58:54;;;;;;;2.75;1.63;;;;;;;;;;5114268;28;20019;-57
2023/01/01 12:01:55;;;;;;;3.05;2.15;;;;;;;;;;5114745;28;20031;-56
2023/01/01 12:04:21;;;;;;;5.20;2.38;;;;;;;;;;5012062;28;20108;-56
2023/01/01 12:06:53;;;;;;;9.27;2.85;;;;;;;;;;5093707;28;20070;-55
2023/01/01 12:09:38;;;;;;;4.53;1.85;;;;;;;;;;5114559;28;20044;-57
2023/01/01 12:12:04;;;;;;;2.45;1.48;;;;;;;;;;5114484;28;20110;-57
2023/01/01 12:14:46;;;;;;;4.13;1.75;;;;;;;;;;5114733;28;20032;-58
2023/01/01 12:17:32;;;;;;;4.35;1.88;;;;;;;;;;5114429;28;20027;-57
2023/01/01 12:20:04;;;;;;;4.47;1.70;;;;;;;;;;5114603;28;20016;-57
2023/01/01 12:22:30;;;;;;;3.05;1.85;;;;;;;;;;5114374;28;20030;-54
2023/01/01 12:24:56;;;;;;;2.90;1.30;;;;;;;;;;5096682;28;20461;-56
2023/01/01 12:27:31;;;;;;;3.42;1.65;;;;;;;;;;5114400;28;20106;-54
2023/01/01 12:30:04;;;;;;;2.47;1.27;;;;;;;;;;5114227;28;20038;-56
2023/01/01 12:32:33;;;;;;;4.65;1.70;;;;;;;;;;5114420;28;20016;-56
2023/01/01 12:35:14;;;;;;;2.67;1.52;;;;;;;;;;5114276;28;20399;-56
2023/01/01 12:37:48;;;;;;;3.35;1.80;;;;;;;;;;5114092;28;20038;-57
2023/01/01 12:40:27;;;;;;;3.60;1.48;;;;;;;;;;5114713;28;20361;-57
2023/01/01 12:43:16;;;;;;;5.45;1.45;;;;;;;;;;5114329;28;20046;-57
2023/01/01 12:45:45;;;;;;;3.00;2.03;;;;;;;;;;5113852;28;20035;-57
2023/01/01 12:48:29;;;;;;;6.15;2.05;;;;;;;;;;5114108;28;20035;-57
2023/01/01 12:51:14;;;;;;;2.63;1.20;;;;;;;;;;5114095;28;20025;-57
2023/01/01 12:53:48;;;;;;;2.95;1.70;;;;;;;;;;5114549;28;20373;-57
2023/01/01 12:56:17;;;;;;;2.10;1.30;;;;;;;;;;5113969;28;20084;-57
2023/01/01 12:58:45;;;;;;;6.97;1.67;;;;;;;;;;5116817;28;20031;-57
2023/01/01 13:01:14;;;;;;;3.92;2.22;;;;;;;;;;5117920;28;20020;-56
2023/01/01 13:03:48;;;;;;;2.50;1.10;;;;;;;;;;5118545;28;20466;-57
2023/01/01 13:06:15;;;;;;;2.40;1.17;;;;;;;;;;5118802;28;20065;-56
2023/01/01 13:08:42;;;;;;;5.20;2.20;;;;;;;;;;5117830;28;20028;-57
2023/01/01 13:11:09;;;;;;;5.47;1.50;;;;;;;;;;5117921;28;20084;-57
2023/01/01 13:13:35;;;;;;;4.20;1.17;;;;;;;;;;5117748;28;20024;-56
2023/01/01 13:16:02;;;;;;;8.98;1.98;;;;;;;;;;5098952;28;20080;-57
2023/01/01 13:18:31;;;;;;;2.85;1.50;;;;;;;;;;5117270;28;20032;-56
2023/01/01 13:21:00;;;;;;;8.25;1.70;;;;;;;;;;5117330;28;20039;-56
2023/01/01 13:23:29;;;;;;;4.00;1.55;;;;;;;;;;5117517;28;20031;-57
2023/01/01 13:26:14;;;;;;;9.60;2.45;;;;;;;;;;5118118;28;20035;-56
2023/01/01 13:28:40;;;;;;;5.85;1.50;;;;;;;;;;5117091;28;20120;-56
2023/01/01 13:31:06;;;;;;;3.40;1.95;;;;;;;;;;5117502;28;20025;-57
2023/01/01 13:33:33;;;;;;;3.60;1.48;;;;;;;;;;5117866;28;20031;-56
2023/01/01 13:36:21;;;;;;;3.03;1.73;;;;;;;;;;5118070;28;20206;-56
2023/01/01 13:38:57;;;;;;;3.10;1.00;;;;;;;;;;5117920;28;20035;-56
2023/01/01 13:41:34;;;;;;;7.47;2.03;;;;;;;;;;5117616;28;20357;-57
2023/01/01 13:44:00;;;;;;;5.95;2.28;;;;;;;;;;5117703;28;20032;-56
2023/01/01 13:46:46;;;;;;;3.25;2.03;;;;;;;;;;5117032;28;20019;-57
2023/01/01 13:49:21;;;;;;;3.13;1.70;;;;;;;;;;5117538;28;20028;-56
2023/01/01 13:51:53;;;;;;;5.40;1.38;;;;;;;;;;5116722;28;20038;-55
2023/01/01 13:54:29;;;;;;;3.80;1.83;;;;;;;;;;5117148;28;20084;-57
2023/01/01 13:57:00;;;;;;;5.47;2.03;;;;;;;;;;5116891;28;20028;-56
2023/01/01 13:59:26;;;;;;;2.70;1.42;;;;;;;;;;5116752;28;20030;-58
2023/01/01 14:01:55;;;;;;;5.00;1.50;;;;;;;;;;5115887;28;20040;-57
2023/01/01 14:04:31;;;;;;;4.13;1.42;;;;;;;;;;5116613;28;20036;-57
2023/01/01 14:06:59;;;;;;;3.30;1.42;;;;;;;;;;5117094;28;20432;-57
2023/01/01 14:09:25;;;;;;;6.95;1.92;;;;;;;;;;5115239;28;20086;-56
2023/01/01 14:11:51;;;;;;;3.17;1.70;;;;;;;;;;5116200;28;20430;-56
2023/01/01 14:14:23;;;;;;;2.95;1.35;;;;;;;;;;5116692;28;20055;-56
2023/01/01 14:16:50;;;;;;;4.55;1.98;;;;;;;;;;5116919;28;20058;-55
2023/01/01 14:19:16;;;;;;;6.82;1.35;;;;;;;;;;5116438;28;20024;-57
2023/01/01 14:21:42;;;;;;;3.15;1.75;;;;;;;;;;5116196;28;20115;-57
2023/01/01 14:24:10;;;;;;;2.17;1.48;;;;;;;;;;5116237;28;20024;-57
2023/01/01 14:26:37;;;;;;;5.53;2.17;;;;;;;;;;5115858;28;20450;-56
2023/01/01 14:29:05;;;;;;;4.32;1.98;;;;;;;;;;5116152;28;20024;-56
2023/01/01 14:31:34;;;;;;;4.20;1.10;;;;;;;;;;5116690;28;20028;-55
2023/01/01 14:34:01;;;;;;;4.05;1.98;;;;;;;;;;5115595;28;20032;-57
2023/01/01 14:36:29;;;;;;;2.92;1.77;;;;;;;;;;5115928;28;20032;-57
2023/01/01 14:38:56;;;;;;;6.22;2.17;;;;;;;;;;5116282;28;20094;-55
2023/01/01 14:41:31;;;;;;;4.75;1.85;;;;;;;;;;5115809;28;20033;-57
2023/01/01 14:44:04;;;;;;;5.18;2.53;;;;;;;;;;5116088;28;20137;-56
2023/01/01 14:46:30;;;;;;;4.45;2.35;;;;;;;;;;5116578;28;20562;-57
2023/01/01 14:48:57;;;;;;;3.28;2.22;;;;;;;;;;5116049;28;20019;-56
2023/01/01 14:51:24;;;;;;;5.60;1.92;;;;;;;;;;5116290;28;20346;-56
2023/01/01 14:53:52;;;;;;;5.53;2.83;;;;;;;;;;5115929;28;20063;-57
2023/01/01 14:56:23;;;;;;;6.80;3.10;;;;;;;;;;5116176;28;20080;-56
2023/01/01 14:58:49;;;;;;;5.53;2.90;;;;;;;;;;5115768;28;20027;-57